Terminal Aerodrome Forecast
Issued by NWS

Home | Current Version | Previous Version | Text Only | Print | Product List | Glossary On
Versions: 1 2 3 4 5 6 7 8 9 10 11 12 13
000
FTUS46 KSEW 271100
TAFHQM
TAF
KHQM 271136Z 2712/2812 08008KT 2SM -RA OVC006
     FM271400 08008KT 4SM BR OVC009
     FM271600 11008KT P6SM SCT010 OVC018
     FM271900 13006KT P6SM SCT020 OVC035
     FM272200 26008KT P6SM SCT100
     FM280900 11006KT P6SM SCT060 BKN120=

USA.gov is the U.S. government's official web portal to all federal, state and local government web resources and services.